Time;durP1;ratioP1;P1;durP2;ratioP2;P2;SDS_P1;SDS_P2;PMS_P1;PMS_P2;Temp;Humidity;BMP_temperature;BMP_pressure;BME280_temperature;BME280_humidity;BME280_pressure;Samples;Min_cycle;Max_cycle;Signal;HPM_P1;HPM_P2
2022/09/25 00:02:14;;;;;;;38.73;29.97;;;;;;;9.77;100.00;95928.09;6130677;23;20369;-77
2022/09/25 00:04:50;;;;;;;43.03;33.10;;;;;;;10.06;100.00;95976.47;6131596;23;20491;-76
2022/09/25 00:07:16;;;;;;;38.53;30.73;;;;;;;9.93;100.00;95946.66;6104149;23;20420;-76
2022/09/25 00:09:43;;;;;;;40.10;32.07;;;;;;;10.05;100.00;95964.38;6104219;23;20866;-76
2022/09/25 00:12:10;;;;;;;41.13;31.20;;;;;;;9.88;100.00;95938.19;6128904;23;20426;-76
2022/09/25 00:14:37;;;;;;;41.73;33.37;;;;;;;9.99;100.00;95974.38;6104231;23;20420;-76
2022/09/25 00:17:04;;;;;;;47.97;35.50;;;;;;;9.73;100.00;95955.44;6128432;23;20919;-76
2022/09/25 00:19:48;;;;;;;49.90;36.37;;;;;;;9.68;100.00;95945.88;6104185;23;20400;-76
2022/09/25 00:22:17;;;;;;;54.37;35.87;;;;;;;9.79;100.00;95964.72;6128640;23;20396;-76
2022/09/25 00:24:44;;;;;;;51.27;35.87;;;;;;;9.65;100.00;95957.13;6128316;23;20410;-76
2022/09/25 00:27:10;;;;;;;50.40;36.20;;;;;;;9.41;100.00;95902.44;6128751;23;20404;-76
2022/09/25 00:29:39;;;;;;;58.17;36.57;;;;;;;9.55;100.00;95930.38;6154533;23;20797;-76
2022/09/25 00:32:08;;;;;;;54.30;35.57;;;;;;;9.56;100.00;95927.41;6154576;23;20483;-76
2022/09/25 00:34:39;;;;;;;57.17;34.13;;;;;;;9.56;100.00;95927.41;6128642;23;20395;-77
2022/09/25 00:37:06;;;;;;;52.60;33.97;;;;;;;9.73;100.00;95936.97;6128467;23;20486;-76
2022/09/25 00:39:33;;;;;;;47.07;30.70;;;;;;;9.59;100.00;95905.63;6154509;23;20410;-76
2022/09/25 00:42:00;;;;;;;49.90;32.10;;;;;;;9.93;100.00;95940.63;6154357;23;20487;-77
2022/09/25 00:44:50;;;;;;;46.33;30.83;;;;;;;10.07;100.00;95964.81;6128691;23;20384;-76
2022/09/25 00:47:22;;;;;;;49.93;34.10;;;;;;;9.90;100.00;95965.81;6103693;23;20450;-75
2022/09/25 00:49:51;;;;;;;50.90;33.30;;;;;;;9.42;100.00;95890.00;6104054;23;20403;-76
2022/09/25 00:52:18;;;;;;;51.83;34.90;;;;;;;9.76;100.00;95944.25;6128060;23;20985;-75
2022/09/25 00:54:54;;;;;;;55.70;34.43;;;;;;;9.89;100.00;95961.63;6103891;23;20462;-76
2022/09/25 00:57:25;;;;;;;49.13;33.80;;;;;;;9.64;100.00;95917.84;6127984;23;20552;-76
2022/09/25 00:59:57;;;;;;;53.90;32.93;;;;;;;9.89;100.00;95947.66;6134746;23;20435;-76
2022/09/25 01:02:34;;;;;;;54.90;32.67;;;;;;;9.93;100.00;95959.88;6142611;23;20484;-76
2022/09/25 01:05:09;;;;;;;58.37;34.50;;;;;;;10.08;100.00;95958.44;6143458;23;20368;-76
2022/09/25 01:07:40;;;;;;;52.73;33.50;;;;;;;9.87;100.00;95923.44;6168871;23;20395;-77
2022/09/25 01:10:07;;;;;;;55.17;35.00;;;;;;;10.13;100.00;95957.44;6143396;23;20395;-76
2022/09/25 01:12:37;;;;;;;59.43;34.80;;;;;;;10.00;100.00;95943.47;6143268;23;20395;-76
2022/09/25 01:15:08;;;;;;;63.00;35.13;;;;;;;10.05;100.00;95954.59;6142960;23;20865;-76
2022/09/25 01:17:51;;;;;;;64.50;36.33;;;;;;;9.91;100.00;95940.19;6137553;23;20475;-76
2022/09/25 01:20:31;;;;;;;54.17;33.60;;;;;;;10.04;100.00;95947.75;6127924;23;20388;-76
2022/09/25 01:23:19;;;;;;;63.73;39.13;;;;;;;9.79;100.00;95914.53;6127453;23;20968;-76
2022/09/25 01:26:30;;;;;;;56.63;34.77;;;;;;;10.02;100.00;95947.34;6127655;23;20411;-76
2022/09/25 01:29:10;;;;;;;60.00;34.80;;;;;;;10.05;100.00;95943.25;6027112;23;20489;-76
2022/09/25 01:31:45;;;;;;;66.63;36.20;;;;;;;10.04;100.00;95950.41;6127946;23;20372;-76
2022/09/25 01:34:31;;;;;;;62.73;37.30;;;;;;;9.95;100.00;95927.84;6127581;23;20498;-76
2022/09/25 01:37:15;;;;;;;67.40;39.23;;;;;;;9.92;100.00;95921.38;6153683;23;20490;-76
2022/09/25 01:39:53;;;;;;;57.80;36.63;;;;;;;10.21;100.00;95952.06;6127794;23;20368;-76
2022/09/25 01:42:26;;;;;;;57.20;35.40;;;;;;;10.21;100.00;95951.25;6103310;23;20499;-76
2022/09/25 01:45:01;;;;;;;59.50;37.00;;;;;;;9.98;100.00;95917.38;6127757;23;20369;-76
2022/09/25 01:47:32;;;;;;;67.37;38.60;;;;;;;10.18;100.00;95941.38;6103203;23;20411;-76
2022/09/25 01:50:03;;;;;;;54.53;36.00;;;;;;;10.23;100.00;95933.22;6103130;23;20490;-76
2022/09/25 01:52:36;;;;;;;60.67;36.07;;;;;;;10.24;100.00;95946.09;6127388;23;20411;-76
2022/09/25 01:55:21;;;;;;;56.33;35.20;;;;;;;10.25;100.00;95926.50;6153529;23;20577;-76
2022/09/25 01:57:54;;;;;;;60.73;37.53;;;;;;;10.23;100.00;95943.81;6127153;23;20435;-76
2022/09/25 02:00:24;;;;;;;50.20;33.47;;;;;;;10.18;100.00;95936.09;6153495;23;20399;-76
2022/09/25 02:02:56;;;;;;;71.57;35.87;;;;;;;9.89;100.00;95911.47;6103026;23;20714;-75
2022/09/25 02:05:32;;;;;;;64.40;37.40;;;;;;;9.88;100.00;95912.56;6102940;23;20408;-76
2022/09/25 02:08:16;;;;;;;80.97;38.17;;;;;;;9.75;100.00;95909.16;6102860;23;20420;-76
2022/09/25 02:10:49;;;;;;;75.13;38.60;;;;;;;9.83;100.00;95919.94;6127235;23;20847;-76
2022/09/25 02:13:19;;;;;;;75.77;38.40;;;;;;;10.04;100.00;95933.78;6127517;23;20407;-76
2022/09/25 02:15:52;;;;;;;58.07;37.10;;;;;;;9.94;100.00;95928.94;6127260;23;20723;-76
2022/09/25 02:21:20;;;;;;;66.43;35.80;;;;;;;9.70;100.00;95898.03;6128111;23;20414;-76
2022/09/25 02:24:04;;;;;;;64.57;37.07;;;;;;;9.89;100.00;95924.66;6153825;23;20368;-76
2022/09/25 02:26:33;;;;;;;70.93;37.67;;;;;;;9.81;100.00;95916.84;6127151;23;20490;-76
2022/09/25 02:29:01;;;;;;;63.53;38.37;;;;;;;9.89;100.00;95923.91;6127573;23;20383;-76
2022/09/25 02:31:34;;;;;;;74.60;40.23;;;;;;;9.90;100.00;95931.50;6103102;23;20900;-76
2022/09/25 02:34:02;;;;;;;78.70;40.03;;;;;;;9.60;100.00;95888.69;6103027;23;20439;-76
2022/09/25 02:36:31;;;;;;;78.47;41.60;;;;;;;9.69;100.00;95904.44;6126914;23;20404;-75
2022/09/25 02:38:58;;;;;;;82.47;39.67;;;;;;;9.80;100.00;95912.69;6127107;23;20454;-76
2022/09/25 02:41:42;;;;;;;80.13;40.43;;;;;;;9.66;100.00;95897.94;6153994;23;20390;-76
2022/09/25 02:44:35;;;;;;;64.80;38.97;;;;;;;9.80;100.00;95908.16;6153158;23;20422;-76
2022/09/25 02:47:33;;;;;;;68.10;36.20;;;;;;;10.00;100.00;95925.75;6126923;23;20948;-76
2022/09/25 02:50:28;;;;;;;70.90;38.77;;;;;;;9.79;100.00;95922.47;6153453;23;20455;-76
2022/09/25 02:52:55;;;;;;;67.17;33.60;;;;;;;9.69;100.00;95918.38;6126882;23;20395;-76
2022/09/25 02:55:32;;;;;;;64.50;35.57;;;;;;;9.61;100.00;95900.00;6102627;23;20400;-76
2022/09/25 02:58:19;;;;;;;62.50;37.80;;;;;;;9.86;100.00;95929.81;6102559;23;20439;-76
2022/09/25 03:00:49;;;;;;;60.60;36.20;;;;;;;9.93;100.00;95920.25;6126846;23;20463;-76
2022/09/25 03:03:18;;;;;;;58.63;32.57;;;;;;;9.59;100.00;95889.03;6102555;23;20446;-76
2022/09/25 03:05:47;;;;;;;59.37;33.87;;;;;;;9.69;100.00;95907.06;6127634;23;20384;-76
2022/09/25 03:11:00;;;;;;;55.40;33.03;;;;;;;9.88;100.00;95909.13;6153219;23;20371;-76
2022/09/25 03:13:31;;;;;;;53.47;34.07;;;;;;;9.76;100.00;95881.66;6126842;23;20439;-76
2022/09/25 03:16:07;;;;;;;51.63;32.47;;;;;;;9.92;100.00;95910.03;6127141;23;20423;-76
2022/09/25 03:18:34;;;;;;;53.50;32.70;;;;;;;10.06;100.00;95908.59;6127456;23;20431;-75
2022/09/25 03:21:03;;;;;;;56.30;34.20;;;;;;;9.80;100.00;95873.06;6128345;23;21113;-76
2022/09/25 03:23:30;;;;;;;47.03;30.97;;;;;;;10.15;100.00;95913.75;6127444;23;20454;-76
2022/09/25 03:25:57;;;;;;;56.47;34.73;;;;;;;10.13;100.00;95928.38;6153841;23;20470;-76
2022/09/25 03:28:24;;;;;;;44.50;31.47;;;;;;;10.02;100.00;95902.44;6129562;23;20415;-76
2022/09/25 03:31:03;;;;;;;49.80;34.83;;;;;;;10.16;100.00;95911.88;6130171;23;20391;-76
2022/09/25 03:33:34;;;;;;;51.17;34.60;;;;;;;10.16;100.00;95917.16;6136863;23;20388;-76
2022/09/25 03:36:08;;;;;;;45.63;29.13;;;;;;;10.17;100.00;95908.91;6141484;23;20490;-75
2022/09/25 03:38:36;;;;;;;50.43;32.77;;;;;;;10.04;100.00;95881.75;6142512;23;20883;-76
2022/09/25 03:41:04;;;;;;;52.67;33.90;;;;;;;10.17;100.00;95908.13;6144308;23;20400;-76
2022/09/25 03:43:32;;;;;;;47.43;31.50;;;;;;;10.20;100.00;95912.75;6169371;23;20384;-75
2022/09/25 03:45:59;;;;;;;51.50;30.80;;;;;;;10.15;100.00;95903.19;6143104;23;20396;-75
2022/09/25 03:48:25;;;;;;;55.37;34.50;;;;;;;9.97;100.00;95868.31;6142808;23;20619;-75
2022/09/25 03:50:52;;;;;;;52.37;31.50;;;;;;;10.26;100.00;95916.72;6137337;23;20554;-76
2022/09/25 03:53:19;;;;;;;45.13;30.67;;;;;;;9.98;100.00;95874.34;6128737;23;20394;-76
2022/09/25 03:55:47;;;;;;;48.23;34.13;;;;;;;10.19;100.00;95908.56;6128450;23;20403;-76
2022/09/25 03:58:15;;;;;;;52.17;32.57;;;;;;;10.16;100.00;95909.25;6128366;23;20855;-76
2022/09/25 04:00:44;;;;;;;52.33;31.00;;;;;;;9.95;100.00;95880.31;6128763;23;20394;-76
2022/09/25 04:03:12;;;;;;;48.50;32.00;;;;;;;10.12;100.00;95908.34;6128327;23;20889;-76
2022/09/25 04:05:41;;;;;;;46.03;29.07;;;;;;;9.65;100.00;95846.25;6154544;23;20406;-76
2022/09/25 04:08:07;;;;;;;47.63;30.07;;;;;;;9.97;100.00;95904.50;6128110;23;20929;-76
2022/09/25 04:10:37;;;;;;;56.57;33.70;;;;;;;9.68;100.00;95869.34;6104150;23;20404;-76
2022/09/25 04:13:05;;;;;;;55.00;32.80;;;;;;;9.82;100.00;95892.75;6128194;23;20400;-76
2022/09/25 04:15:32;;;;;;;59.90;31.33;;;;;;;9.88;100.00;95904.66;6128637;23;20874;-76
2022/09/25 04:17:59;;;;;;;77.70;33.07;;;;;;;9.69;100.00;95878.03;6154044;23;20459;-76
2022/09/25 04:20:31;;;;;;;63.37;33.63;;;;;;;9.74;100.00;95896.28;6154582;23;20412;-76
2022/09/25 04:22:58;;;;;;;50.63;33.93;;;;;;;9.80;100.00;95897.59;6128108;23;20412;-76
2022/09/25 04:25:25;;;;;;;53.43;32.60;;;;;;;9.82;100.00;95903.31;6128228;23;20750;-76
2022/09/25 04:27:55;;;;;;;53.00;30.73;;;;;;;9.81;100.00;95901.78;6105337;23;20830;-78
2022/09/25 04:30:24;;;;;;;46.07;29.80;;;;;;;9.62;100.00;95888.38;6134391;23;20399;-77
2022/09/25 04:35:36;;;;;;;46.23;28.80;;;;;;;9.57;100.00;95870.88;6135036;23;20398;-77
2022/09/25 04:38:03;;;;;;;58.30;31.57;;;;;;;9.33;100.00;95853.16;6133217;23;20427;-78
2022/09/25 04:40:30;;;;;;;55.40;31.33;;;;;;;9.24;100.00;95823.50;6130197;23;20380;-77
2022/09/25 04:42:59;;;;;;;48.00;28.87;;;;;;;9.78;100.00;95900.56;6105011;23;20411;-77
2022/09/25 04:45:27;;;;;;;57.20;31.43;;;;;;;9.62;100.00;95885.75;6130551;23;20511;-78
2022/09/25 04:47:54;;;;;;;55.67;31.67;;;;;;;9.74;100.00;95906.84;6130982;23;20424;-78
2022/09/25 04:50:24;;;;;;;54.43;34.00;;;;;;;9.51;100.00;95866.16;6131981;23;20957;-77
2022/09/25 04:52:52;;;;;;;55.07;32.57;;;;;;;9.73;100.00;95902.66;6131521;23;20486;-77
2022/09/25 04:55:21;;;;;;;46.80;29.20;;;;;;;9.68;100.00;95893.09;6131563;23;20436;-77
2022/09/25 04:57:52;;;;;;;49.33;31.10;;;;;;;9.77;100.00;95891.13;6130383;23;20427;-78
2022/09/25 05:00:27;;;;;;;51.40;30.80;;;;;;;9.87;100.00;95902.31;6132792;23;20768;-77
2022/09/25 05:02:54;;;;;;;45.33;29.17;;;;;;;9.87;100.00;95900.44;6130610;23;20379;-77
2022/09/25 05:05:26;;;;;;;57.40;32.80;;;;;;;9.67;100.00;95873.09;6130336;23;20909;-78
2022/09/25 05:07:55;;;;;;;52.63;32.00;;;;;;;9.80;100.00;95899.47;6130346;23;20423;-77
2022/09/25 05:10:28;;;;;;;54.40;32.87;;;;;;;9.74;100.00;95896.28;6130242;23;20380;-78
2022/09/25 05:12:57;;;;;;;63.47;35.67;;;;;;;9.54;100.00;95863.63;6129909;23;20708;-77
2022/09/25 05:15:25;;;;;;;62.10;34.20;;;;;;;9.69;100.00;95893.88;6156386;23;20384;-78
2022/09/25 05:18:16;;;;;;;54.77;34.13;;;;;;;9.61;100.00;95870.97;6129863;23;20765;-77
2022/09/25 05:20:43;;;;;;;52.30;31.90;;;;;;;9.41;100.00;95846.25;6105938;23;20400;-77
2022/09/25 05:23:09;;;;;;;54.23;33.97;;;;;;;9.71;100.00;95884.50;6156837;23;20385;-78
2022/09/25 05:25:37;;;;;;;51.93;34.67;;;;;;;9.81;100.00;95883.31;6131205;23;20464;-78
2022/09/25 05:28:03;;;;;;;59.80;33.17;;;;;;;9.41;100.00;95825.91;6156822;23;20487;-78
2022/09/25 05:30:32;;;;;;;68.37;36.77;;;;;;;9.85;100.00;95878.88;6130600;23;20437;-78
2022/09/25 05:32:59;;;;;;;65.93;36.17;;;;;;;9.88;100.00;95872.16;6130454;23;20439;-78
2022/09/25 05:35:28;;;;;;;60.43;38.10;;;;;;;9.87;100.00;95879.31;6106387;23;20400;-78
2022/09/25 05:37:55;;;;;;;64.13;35.50;;;;;;;9.80;100.00;95873.84;6130268;23;21013;-78
2022/09/25 05:40:22;;;;;;;61.77;36.20;;;;;;;9.87;100.00;95875.91;6130420;23;20834;-78
2022/09/25 05:42:50;;;;;;;63.10;37.23;;;;;;;9.78;100.00;95862.84;6130366;23;20431;-78
2022/09/25 05:45:19;;;;;;;62.00;37.10;;;;;;;9.92;100.00;95875.69;6131071;23;20388;-78
2022/09/25 05:47:46;;;;;;;73.07;40.67;;;;;;;9.49;100.00;95816.38;6129917;23;20781;-77
2022/09/25 05:50:15;;;;;;;66.90;39.20;;;;;;;9.82;100.00;95870.88;6156077;23;20435;-78
2022/09/25 05:52:42;;;;;;;60.70;35.73;;;;;;;9.71;100.00;95844.91;6131726;23;20384;-78
2022/09/25 05:55:09;;;;;;;67.17;36.20;;;;;;;10.02;100.00;95880.53;6131862;23;20416;-78
2022/09/25 05:57:37;;;;;;;57.20;35.43;;;;;;;9.96;100.00;95855.44;6131916;23;20519;-78
2022/09/25 06:00:11;;;;;;;59.60;35.50;;;;;;;10.20;100.00;95881.03;6170544;23;20416;-77
2022/09/25 06:02:38;;;;;;;61.57;35.30;;;;;;;10.17;100.00;95881.72;6153381;23;20490;-77
2022/09/25 06:05:05;;;;;;;61.93;34.23;;;;;;;10.03;100.00;95855.66;6147924;23;20388;-77
2022/09/25 06:07:31;;;;;;;62.07;33.57;;;;;;;10.11;100.00;95880.38;6163236;23;20428;-78
2022/09/25 06:09:58;;;;;;;67.30;36.80;;;;;;;10.13;100.00;95880.81;6141896;23;20388;-77
2022/09/25 06:12:28;;;;;;;61.73;34.63;;;;;;;10.05;100.00;95853.44;6128399;23;20403;-78
2022/09/25 06:14:54;;;;;;;73.53;39.40;;;;;;;10.06;100.00;95865.56;6146015;23;20372;-79
2022/09/25 06:17:21;;;;;;;68.87;36.33;;;;;;;9.96;100.00;95863.38;6129482;23;20431;-78
2022/09/25 06:19:48;;;;;;;70.63;36.20;;;;;;;9.99;100.00;95867.97;6128757;23;20826;-77
2022/09/25 06:22:15;;;;;;;60.70;32.67;;;;;;;10.19;100.00;95882.16;6156303;23;20384;-78
2022/09/25 06:24:41;;;;;;;58.20;33.93;;;;;;;10.04;100.00;95857.97;6106260;23;20435;-78
2022/09/25 06:27:08;;;;;;;59.57;33.00;;;;;;;10.37;100.00;95891.38;6130989;23;20414;-78
2022/09/25 06:29:35;;;;;;;56.37;34.07;;;;;;;10.32;100.00;95896.91;6155737;23;20467;-78
2022/09/25 06:32:02;;;;;;;56.60;33.47;;;;;;;10.18;100.00;95875.31;6155639;23;20384;-78
2022/09/25 06:34:29;;;;;;;49.37;31.37;;;;;;;9.84;100.00;95832.47;6157166;23;20474;-78
2022/09/25 06:36:55;;;;;;;56.57;33.37;;;;;;;10.14;100.00;95906.13;6156476;23;20408;-78
2022/09/25 06:39:22;;;;;;;66.20;36.53;;;;;;;10.15;100.00;95891.81;6129995;23;20997;-78
2022/09/25 06:41:52;;;;;;;68.77;35.73;;;;;;;10.10;100.00;95871.69;6130964;23;20750;-78
2022/09/25 06:44:20;;;;;;;69.93;37.53;;;;;;;10.33;100.00;95907.13;6130562;23;20523;-78
2022/09/25 06:46:53;;;;;;;63.43;38.33;;;;;;;10.22;100.00;95890.19;6129037;23;20768;-78
2022/09/25 06:49:20;;;;;;;57.73;35.27;;;;;;;10.02;100.00;95862.81;6129685;23;20436;-78
2022/09/25 06:51:49;;;;;;;59.60;34.00;;;;;;;10.06;100.00;95855.75;6105226;23;20414;-78
2022/09/25 06:54:16;;;;;;;53.13;32.70;;;;;;;10.10;100.00;95868.28;6106046;23;20406;-78
2022/09/25 06:56:48;;;;;;;55.33;33.40;;;;;;;10.24;100.00;95903.84;6129359;23;20447;-77
2022/09/25 06:59:15;;;;;;;56.63;31.83;;;;;;;10.08;100.00;95881.84;6105368;23;20423;-78
2022/09/25 07:01:41;;;;;;;49.90;30.23;;;;;;;10.22;100.00;95878.84;6129796;23;20438;-77
2022/09/25 07:04:08;;;;;;;49.13;29.93;;;;;;;10.19;100.00;95887.44;6132526;23;20466;-78
2022/09/25 07:06:36;;;;;;;48.87;30.90;;;;;;;9.93;100.00;95850.84;6107204;23;20758;-77
2022/09/25 07:09:03;;;;;;;47.17;30.00;;;;;;;10.27;100.00;95895.22;6132535;23;20467;-78
2022/09/25 07:11:32;;;;;;;45.90;29.47;;;;;;;10.15;100.00;95866.19;6133762;23;20404;-78
2022/09/25 07:13:59;;;;;;;46.67;28.60;;;;;;;10.23;100.00;95867.94;6159720;23;20478;-78
2022/09/25 07:16:28;;;;;;;43.07;29.40;;;;;;;10.40;100.00;95895.19;6133961;23;20474;-78
2022/09/25 07:18:59;;;;;;;41.90;27.60;;;;;;;10.40;100.00;95906.53;6132445;23;20443;-77
2022/09/25 07:21:29;;;;;;;38.00;26.17;;;;;;;10.22;100.00;95874.34;6106111;23;20723;-78
2022/09/25 07:23:57;;;;;;;42.93;27.33;;;;;;;10.25;100.00;95872.91;6157298;23;20693;-78
2022/09/25 07:26:28;;;;;;;42.23;27.53;;;;;;;10.18;100.00;95883.25;6131252;23;21191;-77
2022/09/25 07:29:03;;;;;;;42.20;27.07;;;;;;;10.51;100.00;95918.19;6158153;23;20801;-77
2022/09/25 07:31:32;;;;;;;36.87;25.10;;;;;;;10.40;100.00;95909.19;6132343;23;20383;-77
2022/09/25 07:34:04;;;;;;;40.83;26.67;;;;;;;10.43;100.00;95923.63;6158221;23;20410;-77
2022/09/25 07:36:37;;;;;;;45.03;29.07;;;;;;;10.29;100.00;95894.94;6108137;23;20407;-78
2022/09/25 07:39:04;;;;;;;47.17;28.50;;;;;;;10.63;100.00;95912.09;6131622;23;21004;-77
2022/09/25 07:41:32;;;;;;;38.80;23.63;;;;;;;10.30;100.00;95876.09;6131132;23;20426;-77
2022/09/25 07:43:59;;;;;;;37.53;25.60;;;;;;;10.35;100.00;95872.44;6131878;23;20410;-78
2022/09/25 07:46:46;;;;;;;41.87;22.90;;;;;;;10.38;100.00;95878.91;6136373;23;20408;-77
2022/09/25 07:49:13;;;;;;;32.17;22.43;;;;;;;10.48;100.00;95870.53;6132904;23;20933;-78
2022/09/25 07:51:39;;;;;;;42.70;26.27;;;;;;;10.43;100.00;95860.19;6161086;23;20455;-77
2022/09/25 07:54:06;;;;;;;34.70;25.30;;;;;;;10.82;100.00;95903.56;6134489;23;20484;-77
2022/09/25 07:56:33;;;;;;;39.53;27.50;;;;;;;10.87;100.00;95905.94;6132640;23;20715;-77
2022/09/25 07:59:00;;;;;;;40.90;25.17;;;;;;;10.66;100.00;95869.88;6134628;23;21276;-77
2022/09/25 08:01:27;;;;;;;44.00;25.63;;;;;;;10.60;100.00;95858.03;6160895;23;20383;-77
2022/09/25 08:03:53;;;;;;;39.23;25.87;;;;;;;10.93;100.00;95886.06;6107656;23;20403;-77
2022/09/25 08:06:20;;;;;;;44.10;25.90;;;;;;;10.96;100.00;95903.94;6130760;23;20427;-76
2022/09/25 08:08:47;;;;;;;134.93;76.63;;;;;;;10.87;100.00;95861.75;6130770;23;20462;-76
2022/09/25 08:11:15;;;;;;;58.50;37.00;;;;;;;11.10;100.00;95896.34;6142135;23;20415;-76
2022/09/25 08:13:43;;;;;;;36.80;25.70;;;;;;;11.15;100.00;95901.38;6142452;23;20380;-76
2022/09/25 08:16:15;;;;;;;38.20;23.33;;;;;;;11.12;100.00;95919.81;6118270;23;20392;-75
2022/09/25 08:18:46;;;;;;;36.70;26.17;;;;;;;11.03;100.00;95908.63;6117676;23;20412;-76
2022/09/25 08:21:16;;;;;;;35.73;24.63;;;;;;;10.99;100.00;95919.13;6118101;23;20407;-76
2022/09/25 08:23:48;;;;;;;34.97;26.10;;;;;;;11.00;100.00;95906.66;6167669;23;20909;-76
2022/09/25 08:26:16;;;;;;;37.07;25.87;;;;;;;11.10;100.00;95924.69;6131749;23;20392;-76
2022/09/25 08:28:43;;;;;;;33.93;24.70;;;;;;;10.69;100.00;95902.06;6130467;23;20903;-76
2022/09/25 08:31:10;;;;;;;35.63;24.43;;;;;;;10.88;100.00;95910.88;6155484;23;20427;-77
2022/09/25 08:33:39;;;;;;;39.00;27.00;;;;;;;10.59;100.00;95876.88;6155956;23;20388;-76
2022/09/25 08:36:05;;;;;;;34.40;24.20;;;;;;;10.54;100.00;95842.72;6129704;23;20439;-77
2022/09/25 08:38:32;;;;;;;33.90;25.47;;;;;;;10.76;100.00;95855.41;6128850;23;20424;-76
2022/09/25 08:41:23;;;;;;;31.40;23.10;;;;;;;11.16;100.00;95918.78;6128426;23;20458;-76
2022/09/25 08:44:05;;;;;;;33.67;23.13;;;;;;;11.08;100.00;95884.53;6128351;23;20426;-76
2022/09/25 08:49:37;;;;;;;30.00;21.57;;;;;;;10.95;100.00;95911.09;6128344;23;20392;-76
2022/09/25 08:52:07;;;;;;;28.10;21.50;;;;;;;11.09;100.00;95886.13;6104040;23;20960;-76
2022/09/25 08:54:35;;;;;;;26.60;20.77;;;;;;;11.33;100.00;95904.47;6103962;23;20388;-76
2022/09/25 08:57:10;;;;;;;20.60;17.23;;;;;;;11.45;100.00;95908.91;6103983;23;20459;-76
2022/09/25 08:59:41;;;;;;;20.87;17.77;;;;;;;11.53;100.00;95919.34;6103857;23;20438;-76
2022/09/25 09:02:13;;;;;;;20.97;16.60;;;;;;;11.30;100.00;95888.50;6154291;23;20374;-76
2022/09/25 09:04:53;;;;;;;21.80;17.40;;;;;;;11.45;100.00;95924.78;6154314;23;20371;-77
2022/09/25 09:07:43;;;;;;;24.13;19.63;;;;;;;11.26;100.00;95914.88;6154207;23;20507;-77
2022/09/25 09:10:12;;;;;;;20.60;18.40;;;;;;;11.63;100.00;95918.06;6154239;23;20673;-77
2022/09/25 09:12:43;;;;;;;23.30;18.70;;;;;;;11.55;100.00;95889.88;6128427;23;20380;-77
2022/09/25 09:15:34;;;;;;;25.17;19.67;;;;;;;11.80;100.00;95922.25;6154280;23;20383;-76
2022/09/25 09:18:13;;;;;;;22.33;19.93;;;;;;;11.58;100.00;95883.88;6127868;23;20514;-77
2022/09/25 09:20:51;;;;;;;20.40;18.10;;;;;;;11.55;100.00;95880.06;6103860;23;20750;-77
2022/09/25 09:23:21;;;;;;;24.07;19.70;;;;;;;11.74;100.00;95908.47;6103568;23;20808;-76
2022/09/25 09:25:48;;;;;;;21.43;16.87;;;;;;;11.76;100.00;95919.50;6103748;23;20498;-76
2022/09/25 09:28:20;;;;;;;25.77;18.77;;;;;;;11.86;100.00;95910.28;6127951;23;20410;-76
2022/09/25 09:31:02;;;;;;;25.53;19.70;;;;;;;11.83;100.00;95909.09;6128006;23;20464;-76
2022/09/25 09:34:05;;;;;;;30.53;18.77;;;;;;;11.64;100.00;95873.81;6128432;23;20471;-76
2022/09/25 09:36:53;;;;;;;30.00;23.60;;;;;;;12.10;100.00;95904.00;6127791;23;20403;-76
2022/09/25 09:39:38;;;;;;;74.37;61.90;;;;;;;12.18;100.00;95900.41;6127880;23;20957;-76
2022/09/25 09:42:21;;;;;;;27.20;21.40;;;;;;;12.07;100.00;95902.81;6127623;23;20402;-76
2022/09/25 09:44:57;;;;;;;27.60;19.17;;;;;;;12.26;100.00;95902.06;6127753;23;20487;-78
2022/09/25 09:47:49;;;;;;;28.83;18.57;;;;;;;12.58;100.00;95901.97;6153700;23;20407;-76
2022/09/25 09:50:24;;;;;;;23.87;20.50;;;;;;;12.89;100.00;95911.66;6127788;23;20380;-76
2022/09/25 09:53:02;;;;;;;24.27;20.33;;;;;;;12.85;100.00;95895.69;6127611;23;20407;-76
2022/09/25 09:55:48;;;;;;;24.60;19.60;;;;;;;12.81;100.00;95902.00;6127817;23;20368;-76
2022/09/25 09:58:25;;;;;;;25.50;19.77;;;;;;;12.73;100.00;95885.97;6153667;23;20778;-76
2022/09/25 10:00:52;;;;;;;21.90;17.33;;;;;;;12.54;100.00;95851.50;6127531;23;20754;-76
2022/09/25 10:03:37;;;;;;;20.10;17.87;;;;;;;12.55;100.00;95889.38;6103285;23;20626;-76
2022/09/25 10:06:10;;;;;;;22.40;17.60;;;;;;;12.67;100.00;95887.38;6103938;23;20435;-78
2022/09/25 10:08:37;;;;;;;24.53;20.53;;;;;;;12.34;100.00;95858.69;6127808;23;20507;-79
2022/09/25 10:11:16;;;;;;;22.70;18.57;;;;;;;12.42;100.00;95870.22;6107023;23;20419;-79
2022/09/25 10:13:44;;;;;;;23.70;20.20;;;;;;;12.32;100.00;95823.06;6106828;23;20392;-78
2022/09/25 10:16:15;;;;;;;24.83;19.67;;;;;;;12.97;100.00;95876.94;6129216;23;20403;-77
2022/09/25 10:18:54;;;;;;;21.67;19.07;;;;;;;13.29;100.00;95874.09;6127247;23;20431;-77
2022/09/25 10:21:24;;;;;;;22.33;19.03;;;;;;;13.44;100.00;95851.94;6103090;23;20442;-76
2022/09/25 10:23:53;;;;;;;22.70;17.73;;;;;;;13.60;100.00;95863.19;6103087;23;20396;-76
2022/09/25 10:26:29;;;;;;;28.73;23.80;;;;;;;13.63;100.00;95859.09;6127611;23;20516;-77
2022/09/25 10:28:57;;;;;;;22.63;16.60;;;;;;;13.51;100.00;95853.97;6103108;23;20403;-77
2022/09/25 10:31:29;;;;;;;18.23;16.27;;;;;;;13.41;100.00;95817.38;6127505;23;20380;-77
2022/09/25 10:34:03;;;;;;;19.90;17.27;;;;;;;13.85;100.00;95849.53;6153517;23;20376;-76
2022/09/25 10:36:37;;;;;;;22.70;18.80;;;;;;;13.64;100.00;95828.75;6126982;23;20456;-76
2022/09/25 10:39:23;;;;;;;19.27;16.90;;;;;;;13.71;100.00;95828.06;6154455;23;20374;-76
2022/09/25 10:42:31;;;;;;;20.80;17.20;;;;;;;14.02;100.00;95858.84;6133075;23;20372;-76
2022/09/25 10:44:58;;;;;;;19.30;17.00;;;;;;;13.76;100.00;95831.19;6104937;23;20406;-76
2022/09/25 10:50:20;;;;;;;16.90;15.07;;;;;;;13.86;100.00;95856.38;6163924;23;20901;-76
2022/09/25 10:52:58;;;;;;;21.23;18.77;;;;;;;14.17;100.00;95861.38;6115555;23;20870;-76
2022/09/25 10:55:28;;;;;;;20.63;15.67;;;;;;;14.38;100.00;95865.41;6109755;23;20442;-77
2022/09/25 10:58:09;;;;;;;20.80;17.37;;;;;;;14.28;100.00;95860.72;6136462;23;20422;-76
2022/09/25 11:00:53;;;;;;;18.50;16.37;;;;;;;13.81;100.00;95838.09;6162303;23;20412;-77
2022/09/25 11:03:20;;;;;;;17.70;15.83;;;;;;;14.07;100.00;95861.22;6153806;23;20364;-76
2022/09/25 11:05:54;;;;;;;21.50;16.87;;;;;;;14.01;100.00;95854.66;6154556;23;20491;-76
2022/09/25 11:08:25;;;;;;;19.30;17.30;;;;;;;13.75;100.00;95860.75;6103153;23;20438;-76
2022/09/25 11:10:57;;;;;;;19.10;15.70;;;;;;;13.43;100.00;95815.13;6127684;23;20396;-76
2022/09/25 11:13:38;;;;;;;21.37;16.97;;;;;;;13.11;100.00;95774.81;6127612;23;20787;-77
2022/09/25 11:16:09;;;;;;;23.37;15.10;;;;;;;13.31;100.00;95800.94;6127818;23;20465;-76
2022/09/25 11:18:44;;;;;;;17.33;14.60;;;;;;;13.69;100.00;95844.38;6127099;23;21028;-76
2022/09/25 11:21:34;;;;;;;16.73;14.87;;;;;;;13.55;100.00;95826.31;6127736;23;20920;-76
2022/09/25 11:24:19;;;;;;;18.97;15.50;;;;;;;14.13;100.00;95846.47;6153364;23;20369;-76
2022/09/25 11:27:29;;;;;;;16.00;14.40;;;;;;;13.99;100.00;95836.41;6127089;23;20443;-76
2022/09/25 11:30:04;;;;;;;18.63;15.97;;;;;;;13.91;100.00;95837.47;6089785;23;20432;-77
2022/09/25 11:32:53;;;;;;;20.47;16.10;;;;;;;14.44;100.00;95842.72;6153344;23;20395;-76
2022/09/25 11:35:25;;;;;;;16.13;14.07;;;;;;;14.57;100.00;95849.34;6153350;23;20369;-76
2022/09/25 11:41:10;;;;;;;16.23;14.00;;;;;;;14.71;100.00;95846.06;6153130;23;20411;-76
2022/09/25 11:41:36;;;;;;;18.20;13.90;;;;;;;14.83;100.00;95842.38;6127043;23;20416;-76
2022/09/25 11:44:30;;;;;;;14.53;12.80;;;;;;;14.95;100.00;95834.09;6153312;23;20479;-76
2022/09/25 11:47:16;;;;;;;17.33;13.80;;;;;;;15.33;100.00;95838.25;6103268;23;20419;-77
2022/09/25 11:49:47;;;;;;;17.10;14.00;;;;;;;15.37;100.00;95833.75;6128773;23;20502;-76
2022/09/25 11:52:38;;;;;;;20.03;14.13;;;;;;;15.66;100.00;95835.50;6129146;23;20402;-76